Portada
METAR-TAF:

METAR-TAF

Aeroports :

Vorónej, Rússia

latitud: 51-39N, longitud: 039-15E, altitud: 154 m

Observació

L'informe es va fer fa 24 minuts, a les 18:30 UTC
Vent 2 kt del Est
Temperatura 2°C
Humitat 93%
Pressió 1029 hPa
Visibilitat: 0300 m
boira

METAR: UUOO 181830Z 10001MPS 0400 0300NW R12/0900U FG VV001 02/01 Q1029 R12/090070 NOSIG RMK QBB050 QFE758

Hora: 21:54 (18:54 UTC)

Pronòstic

L'informe es va fer fa 1 hora i 54 minuts, a les 17:00 UTC
Pronòstic vàlid del 18 a les 18 UTC al 19 a les 03 UTC
Vent 2 kt amb direcció variable
Visibilitat: 0400 m
a una alçada de 200 ft
boira
Temporalment
l' 18 a les 20 UTC al 19 a les 03 UTC
Visibilitat: 1200 m
Cel cobert a una alçada de 400 ft
plugim, boirina

TAF: UUOO 181700Z 1818/1903 VRB01MPS 0400 FG VV002 TEMPO 1820/1903 1200 DZ BR OVC004

Observacions i pronòstics meteorològics de més de 4000 aeroports (METAR i TAF).

Les estacions disponibles són els punts grocs i vermells al mapa.

Posi el ratolí al punt desitjat per veure el nom de l'estació.

Feu clic per veure les observacions i els pronòstics meteorològics.

Per canviar el mapa: feu clic els botons verds amb una creu de color negre per apropar; al botó verd amb un guió per allunyar la imatge; o en les fletxes verdes per a mapes adjacents.


METAR-TAF: